Kezdőlap
METAR-TAF:

METAR-TAF

Repülőterek :

Dublini repülőtér

Dublin, Írország

földrajzi szélesség: 53-26N, földrajzi hosszúság: 006-15W, magasság: 68 m

Jelenlegi meteorológiai megfigyelések

A jelentés 27 perccel ezelõtt készült, 14:00 UTC
Nyugati szél 6 kt, dél-délkeleti és északnyugati között változik
Hőmérséklet 20°C
Páratartalom 46%
Légköri nyomás 1013 hPa
Látótávolság 10 km, vagy több
Kevés felhő 2600 lábon
Szakadozott felhőzet 6000 lábon

METAR: EIDW 161400Z 26006KT 150V320 9999 FEW026 BKN060 20/08 Q1013 NOSIG

Idő: 15:27 (14:27 UTC)

Előrejelzés

A jelentés 22 perccel ezelõtt készült, 14:05 UTC
Az előrejelzés 16-én 14 óra UTC és 17-én 12 óra UTC között érvényes
Nyugati szél 9 kt
Látótávolság 10 km, vagy több
Kevés felhő 2500 lábon
Szakadozott felhőzet 4500 lábon
16-én 14 óra UTC és 16-én 18 óra UTC között ideiglenes
Délkeleti szél 5 kt

TAF: EIDW 161405Z 1614/1712 26009KT 9999 FEW025 BKN045 TEMPO 1614/1618 13005KT

Meteorológiai megfigyelések és előrejelzések több, mint 4000 repülőtéren (METAR és TAF jelentéseket).

A térképen piros és sárga pontok jelzik az elérhető meteorológiai állomásokat.

Mozgassa az egeret a pont fölött, hogy megjelenjen az állomás neve.

Azután kattintson az időjárási megfigyelések és előrejelzések megtekintéséhez.

A térkép megváltoztatása: kattintson a fekete keresztel jelölt zöld gombra ráközelítéshez, a vonallal jelölt zöld gombra távolításhoz, vagy a zöld nyilakra a szomszédos térképek eléréséhez.


METAR-TAF: